Latest Weather Observations for Gladstone Airport

IDQ60801

Issued at 1:32 pm EST Friday 29 July 2016 (issued every 30 minutes, with the page automatically refreshed every 10 minutes)

About weather observations | Map of weather stations | Latest weather observations for QLD | Other Formats
Station Details ID: 039326 Name: GLADSTONE AIRPORT Lat: -23.87 Lon: 151.22 Height: 16.6 m
Data from the previous 72 hours. | See also: Recent months at Gladstone Airport
Date/Time
EST
Temp
°C
App
Temp
°C
Dew
Point
°C
Rel
Hum
%
Delta-T
°C
Wind Press
QNH
hPa
Press
MSL
hPa
Rain since
9am
mm
Dir  Spd
km/h
Gust
km/h
Spd
kts
Gust
kts
29/01:30pm 23.3 19.5 9.7 42 7.4 ESE 20 28 11 15 1019.6 1019.6 0.0
29/01:00pm 23.0 18.8 9.8 43 7.2 E 22 30 12 16 1020.1 1020.1 0.0
29/12:30pm 23.5 19.4 10.2 43 7.3 E 22 33 12 18 1020.4 1020.4 0.0
29/12:00pm 22.8 19.2 10.6 46 6.7 ESE 20 30 11 16 1021.1 1021.1 0.0
29/11:30am 22.0 18.8 9.9 46 6.6 SE 17 24 9 13 1021.6 1021.6 0.0
29/11:00am 22.1 18.6 10.9 49 6.2 SE 20 28 11 15 1022.2 1022.2 0.0
29/10:30am 21.7 20.4 11.4 52 5.7 SSW 9 17 5 9 1022.6 1022.6 0.0
29/10:00am 20.0 18.4 10.1 53 5.3 SSW 9 17 5 9 1022.8 1022.8 0.0
29/09:30am 18.2 16.2 8.7 54 4.9 SW 9 17 5 9 1023.0 1023.0 0.0
29/09:00am 16.4 14.0 8.6 60 4.0 SSW 11 19 6 10 1023.0 1023.0 0.0
29/08:30am 14.8 12.2 7.6 62 3.6 SSW 11 19 6 10 1023.0 1023.0 0.0
29/08:00am 14.0 10.9 7.1 63 3.3 SSW 13 17 7 9 1022.7 1022.7 0.0
29/07:30am 11.0 8.0 6.0 71 2.3 SSW 11 17 6 9 1022.5 1022.5 0.0
29/07:00am 9.5 6.3 5.3 75 1.9 SSW 11 17 6 9 1022.4 1022.4 0.0
29/06:30am 9.1 5.5 4.9 75 1.9 SSW 13 19 7 10 1022.0 1022.0 0.0
29/06:00am 9.1 5.5 4.9 75 1.9 SW 13 19 7 10 1021.7 1021.7 0.0
29/05:30am 9.1 5.5 4.9 75 1.9 SW 13 20 7 11 1021.5 1021.5 0.0
29/05:00am 9.3 6.1 4.9 74 2.0 SSW 11 17 6 9 1021.3 1021.3 0.0
29/04:30am 9.3 5.3 4.9 74 2.0 SW 15 20 8 11 1021.1 1021.1 0.0
29/04:00am 10.1 6.5 4.9 70 2.3 SSW 13 19 7 10 1021.0 1021.0 0.0
29/03:30am 10.3 6.7 5.1 70 2.4 SW 13 19 7 10 1021.0 1021.0 0.0
29/03:00am 10.1 6.2 5.3 72 2.2 SSW 15 20 8 11 1021.0 1021.0 0.0
29/02:30am 10.4 6.9 5.6 72 2.2 SSW 13 19 7 10 1021.4 1021.4 0.0
29/02:00am 10.4 7.0 6.0 74 2.0 SSW 13 17 7 9 1021.6 1021.6 0.0
29/01:30am 10.8 7.4 5.8 71 2.3 SSW 13 19 7 10 1021.8 1021.8 0.0
29/01:00am 11.0 7.6 6.0 71 2.3 SW 13 19 7 10 1022.0 1022.0 0.0
29/12:30am 11.8 8.4 5.7 66 2.8 SW 13 17 7 9 1022.1 1022.1 0.0
29/12:00am 12.5 9.4 5.4 62 3.3 SSW 11 15 6 8 1022.3 1022.3 0.0
 
Date/Time
EST
Temp
°C
App
Temp
°C
Dew
Point
°C
Rel
Hum
%
Delta-T
°C
Wind Press
QNH
hPa
Press
MSL
hPa
Rain since
9am
mm
Dir  Spd
km/h
Gust
km/h
Spd
kts
Gust
kts
28/11:30pm 13.1 10.0 5.5 60 3.6 SW 11 17 6 9 1022.3 1022.3 0.0
28/11:00pm 12.6 10.4 6.0 64 3.1 SSW 7 11 4 6 1022.6 1022.6 0.0
28/10:30pm 12.1 9.9 6.2 67 2.8 SSW 7 9 4 5 1022.8 1022.8 0.0
28/10:00pm 12.7 11.2 6.7 67 2.9 SE 4 7 2 4 1023.0 1023.0 0.0
28/09:30pm 13.0 12.2 6.4 64 3.1 CALM 0 0 0 0 1023.1 1023.1 0.0
28/09:00pm 14.3 13.5 6.6 60 3.7 CALM 0 4 0 2 1022.9 1022.9 0.0
28/08:30pm 15.8 13.2 6.0 52 4.7 SSE 9 11 5 6 1022.9 1022.9 0.0
28/08:00pm 15.6 13.0 6.3 54 4.5 SSE 9 11 5 6 1022.7 1022.7 0.0
28/07:30pm 15.4 13.5 6.9 57 4.2 SSE 6 7 3 4 1022.5 1022.5 0.0
28/07:00pm 15.7 14.5 8.2 61 3.8 SE 4 7 2 4 1022.4 1022.4 0.0
28/06:30pm 16.3 14.7 8.0 58 4.2 S 6 6 3 3 1022.0 1022.0 0.0
28/06:00pm 18.8 17.1 7.6 48 5.7 ESE 6 9 3 5 1021.7 1021.7 0.0
28/05:30pm 19.3 16.2 7.4 46 6.1 ESE 13 17 7 9 1021.4 1021.4 0.0
28/05:00pm 20.0 16.9 7.1 43 6.5 E 13 19 7 10 1021.2 1021.2 0.0
28/04:30pm 20.5 17.1 6.1 39 7.2 ESE 13 20 7 11 1021.0 1021.0 0.0
28/04:00pm 21.1 17.9 7.0 40 7.2 E 13 22 7 12 1020.6 1020.6 0.0
28/03:30pm 21.7 18.1 5.2 34 8.2 E 13 24 7 13 1020.5 1020.5 0.0
28/03:00pm 21.3 17.6 4.4 33 8.2 E 13 20 7 11 1020.6 1020.6 0.0
28/02:30pm 21.6 17.9 4.2 32 8.5 ESE 13 22 7 12 1020.6 1020.6 0.0
28/02:00pm 20.9 17.8 3.6 32 8.2 SSE 9 17 5 9 1020.9 1020.9 0.0
28/01:30pm 21.0 17.2 3.7 32 8.3 S 13 20 7 11 1021.2 1021.2 0.0
28/01:00pm 20.6 16.3 3.3 32 8.2 SSE 15 28 8 15 1021.6 1021.6 0.0
28/12:30pm 20.2 15.0 3.4 33 8.0 SSE 20 32 11 17 1022.0 1022.0 0.0
28/12:00pm 19.5 14.5 3.6 35 7.5 SSE 19 30 10 16 1022.5 1022.5 0.0
28/11:30am 19.7 15.7 5.0 38 7.2 S 15 28 8 15 1023.1 1023.1 0.0
28/11:00am 19.1 14.3 4.5 38 7.0 SSE 19 30 10 16 1023.6 1023.5 0.0
28/10:30am 18.2 13.0 3.3 37 6.9 S 20 33 11 18 1023.9 1023.8 0.0
28/10:00am 17.7 12.9 2.8 37 6.8 S 17 32 9 17 1024.2 1024.1 0.0
28/09:30am 17.3 14.0 4.3 42 6.1 S 11 22 6 12 1024.3 1024.2 0.0
28/09:00am 16.9 13.6 4.6 44 5.8 S 11 17 6 9 1024.5 1024.4 0.0
28/08:30am 16.1 13.2 4.5 46 5.4 S 9 15 5 8 1024.5 1024.4 0.0
28/08:00am 15.2 11.9 4.6 49 4.9 S 11 17 6 9 1024.1 1024.0 0.0
28/07:30am 14.0 11.1 4.6 53 4.3 SSW 9 13 5 7 1023.7 1023.6 0.0
28/07:00am 12.9 9.9 4.3 56 3.9 S 9 13 5 7 1023.2 1023.2 0.0
28/06:30am 12.2 9.2 4.2 58 3.6 SSW 9 13 5 7 1022.9 1022.9 0.0
28/06:00am 11.5 8.6 4.5 62 3.1 SSW 9 11 5 6 1022.4 1022.4 0.0
28/05:30am 11.4 9.4 4.6 63 3.1 S 4 9 2 5 1022.1 1022.1 0.0
28/05:00am 11.7 8.9 5.3 65 2.9 SSW 9 11 5 6 1021.9 1021.9 0.0
28/04:30am 10.5 8.2 5.5 71 2.3 SSW 7 9 4 5 1021.8 1021.8 0.0
28/04:00am 10.5 8.3 5.5 71 2.3 SSW 6 9 3 5 1021.6 1021.6 0.0
28/03:30am 10.7 8.4 5.0 68 2.6 SSW 6 9 3 5 1021.7 1021.7 0.0
28/03:00am 11.8 10.0 5.4 65 2.9 SSW 4 9 2 5 1021.8 1021.8 0.0
28/02:30am 12.0 9.6 5.4 64 3.1 SW 7 9 4 5 1021.6 1021.6 0.0
28/02:00am 12.1 9.5 5.9 66 2.9 SW 9 11 5 6 1021.8 1021.8 0.0
28/01:30am 11.7 9.5 6.4 70 2.5 SSW 7 11 4 6 1022.0 1022.0 0.0
28/01:00am 12.0 10.1 6.5 69 2.6 SW 6 9 3 5 1022.2 1022.2 0.0
28/12:30am 12.5 10.4 6.5 67 2.9 SSW 7 9 4 5 1022.1 1022.1 0.0
28/12:00am 12.9 12.1 6.7 66 3.0 CALM 0 6 0 3 1022.0 1022.0 0.0
 
Date/Time
EST
Temp
°C
App
Temp
°C
Dew
Point
°C
Rel
Hum
%
Delta-T
°C
Wind Press
QNH
hPa
Press
MSL
hPa
Rain since
9am
mm
Dir  Spd
km/h
Gust
km/h
Spd
kts
Gust
kts
27/11:30pm 13.7 12.9 6.6 62 3.4 CALM 0 0 0 0 1021.8 1021.8 0.0
27/11:00pm 15.1 14.2 6.1 55 4.3 CALM 0 0 0 0 1021.8 1021.8 0.0
27/10:30pm 16.0 13.9 5.9 51 4.9 SSW 6 9 3 5 1021.8 1021.8 0.0
27/10:00pm 16.5 13.5 6.1 50 5.0 SW 11 15 6 8 1021.5 1021.5 0.0
27/09:30pm 16.8 14.7 5.7 48 5.4 SSW 6 9 3 5 1021.2 1021.2 0.0
27/09:00pm 17.5 14.1 5.8 46 5.7 SW 13 22 7 12 1021.1 1021.1 0.0
27/08:30pm 17.5 14.8 5.8 46 5.7 SW 9 15 5 8 1020.6 1020.6 0.0
27/08:00pm 18.0 15.7 5.9 45 5.9 SW 7 13 4 7 1020.3 1020.3 0.0
27/07:30pm 18.8 15.4 6.0 43 6.3 WSW 13 22 7 12 1020.0 1020.0 0.0
27/07:00pm 19.1 15.7 5.9 42 6.5 WSW 13 20 7 11 1019.5 1019.5 0.0
27/06:30pm 20.1 17.0 5.7 39 7.1 WSW 11 19 6 10 1019.1 1019.1 0.0
27/06:00pm 21.1 17.7 5.9 37 7.6 WSW 13 24 7 13 1018.8 1018.8 0.0
27/05:30pm 22.0 19.1 6.3 36 8.0 WSW 11 20 6 11 1018.3 1018.3 0.0
27/05:00pm 23.0 20.5 6.7 35 8.4 WSW 9 15 5 8 1018.0 1018.0 0.0
27/04:30pm 23.8 20.4 6.1 32 9.0 WSW 13 20 7 11 1017.5 1017.5 0.0
27/04:00pm 24.3 20.9 6.1 31 9.3 WSW 13 20 7 11 1017.0 1017.0 0.0
27/03:30pm 25.2 22.0 6.9 31 9.6 W 13 17 7 9 1016.8 1016.8 0.0
27/03:00pm 25.3 22.3 6.0 29 9.9 W 11 19 6 10 1016.7 1016.7 0.0
27/02:30pm 25.9 22.2 4.4 25 10.8 SW 13 17 7 9 1016.7 1016.7 0.0
27/02:00pm 26.1 23.4 5.7 27 10.5 WSW 9 17 5 9 1016.8 1016.8 0.0
27/01:30pm 25.3 22.0 4.4 26 10.5 SW 11 19 6 10 1017.1 1017.1 0.0
27/01:00pm 24.7 21.6 7.4 33 9.1 SSW 13 19 7 10 1017.5 1017.5 0.0
27/12:30pm 24.0 21.1 6.7 33 8.9 SW 11 19 6 10 1017.9 1017.9 0.0
27/12:00pm 23.4 21.2 7.9 37 8.1 SSW 9 20 5 11 1018.2 1018.2 0.0
27/11:30am 22.8 20.5 8.9 41 7.4 SW 11 17 6 9 1018.9 1018.9 0.0
27/11:00am 22.5 20.7 10.9 48 6.4 SW 11 19 6 10 1019.3 1019.3 0.0
27/10:30am 21.4 19.7 11.1 52 5.7 SW 11 20 6 11 1019.8 1019.8 0.0
27/10:00am 20.4 18.3 11.1 55 5.1 SSW 13 20 7 11 1020.3 1020.3 0.0
27/09:30am 18.5 17.2 11.1 62 4.0 SW 9 17 5 9 1020.3 1020.3 0.0
27/09:00am 16.3 15.1 10.2 67 3.2 SW 7 13 4 7 1020.4 1020.4 0.0
27/08:30am 15.2 12.8 10.0 71 2.7 SSW 13 19 7 10 1020.3 1020.3 0.0
27/08:00am 13.8 10.8 9.3 74 2.3 SW 15 20 8 11 1020.0 1020.0 0.0
27/07:30am 13.1 11.2 9.0 76 2.1 SSW 9 13 5 7 1019.6 1019.6 0.0
27/07:00am 11.9 9.1 8.7 81 1.6 SW 13 20 7 11 1019.4 1019.4 0.0
27/06:30am 11.9 9.1 8.7 81 1.6 SSW 13 17 7 9 1019.2 1019.2 0.0
27/06:00am 12.1 9.4 8.9 81 1.6 SSW 13 17 7 9 1019.0 1019.0 0.0
27/05:30am 12.4 10.5 9.1 80 1.7 SSW 9 15 5 8 1018.7 1018.7 0.0
27/05:00am 12.6 10.8 9.4 81 1.6 SSW 9 11 5 6 1018.4 1018.4 0.0
27/04:30am 12.9 10.8 9.7 81 1.6 SW 11 19 6 10 1018.5 1018.5 0.0
27/04:00am 13.1 11.0 9.9 81 1.6 SW 11 15 6 8 1018.4 1018.4 0.0
27/03:30am 13.0 11.1 10.5 85 1.3 SSW 11 17 6 9 1018.6 1018.6 0.0
27/03:00am 13.1 11.2 10.6 85 1.3 SW 11 15 6 8 1018.8 1018.8 0.0
27/02:30am 13.6 11.9 11.1 85 1.3 SW 11 15 6 8 1018.8 1018.8 0.0
27/02:00am 14.0 12.8 11.5 85 1.3 SW 9 13 5 7 1018.6 1018.6 0.0
27/01:30am 14.4 13.7 11.9 85 1.3 SW 7 11 4 6 1019.0 1019.0 0.0
27/01:00am 14.7 13.6 12.0 84 1.5 SW 9 13 5 7 1019.0 1019.0 0.0
27/12:30am 14.9 14.4 12.2 84 1.5 SW 6 9 3 5 1019.0 1019.0 0.0
27/12:00am 15.2 14.8 12.3 83 1.6 SSW 6 7 3 4 1018.9 1018.9 0.0
 
Date/Time
EST
Temp
°C
App
Temp
°C
Dew
Point
°C
Rel
Hum
%
Delta-T
°C
Wind Press
QNH
hPa
Press
MSL
hPa
Rain since
9am
mm
Dir  Spd
km/h
Gust
km/h
Spd
kts
Gust
kts
26/11:30pm 15.4 15.7 12.3 82 1.7 SW 2 7 1 4 1019.0 1019.0 0.0
26/11:00pm 15.4 16.1 12.3 82 1.7 CALM 0 0 0 0 1019.0 1019.0 0.0
26/10:30pm 15.4 14.8 12.3 82 1.7 SSW 7 9 4 5 1019.1 1019.1 0.0
26/10:00pm 15.9 16.7 12.5 80 1.9 CALM 0 0 0 0 1019.1 1019.1 0.0
26/09:30pm 16.1 16.1 12.5 79 2.0 SSW 4 6 2 3 1019.0 1019.0 0.0
26/09:00pm 16.3 17.1 12.5 78 2.1 CALM 0 0 0 0 1018.7 1018.7 0.0
26/08:30pm 16.7 15.8 12.7 77 2.2 SW 9 9 5 5 1018.6 1018.6 0.0
26/08:00pm 17.0 16.6 12.5 75 2.5 SSW 6 9 3 5 1018.5 1018.5 0.0
26/07:30pm 17.8 18.5 12.3 70 3.0 CALM 0 0 0 0 1018.2 1018.2 0.0
26/07:00pm 18.6 18.6 12.4 67 3.4 E 4 7 2 4 1017.8 1017.8 0.0
26/06:30pm 19.5 19.1 12.5 64 3.9 NE 6 7 3 4 1017.4 1017.4 0.0
26/06:00pm 19.8 18.8 12.3 62 4.2 NE 9 11 5 6 1017.0 1017.0 0.0
26/05:30pm 20.2 18.7 11.9 59 4.6 ENE 11 13 6 7 1016.7 1016.7 0.0
26/05:00pm 21.2 18.9 10.4 50 5.9 ENE 13 17 7 9 1016.5 1016.5 0.0
26/04:30pm 22.3 19.6 9.1 43 7.1 NE 13 19 7 10 1016.3 1016.3 0.0
26/04:00pm 23.2 19.5 6.1 33 8.7 ENE 15 19 8 10 1016.2 1016.2 0.0
26/03:30pm 23.7 20.0 6.5 33 8.8 NE 15 19 8 10 1016.1 1016.1 0.0
26/03:00pm 23.9 21.0 6.7 33 8.9 NE 11 15 6 8 1016.2 1016.2 0.0
26/02:30pm 23.7 20.2 5.6 31 9.2 NE 13 17 7 9 1016.4 1016.4 0.0
26/02:00pm 23.7 19.9 5.6 31 9.1 NNE 15 20 8 11 1016.7 1016.7 0.0

Other Formats:

Comma delimited format used in spreadsheet applications
http://www.bom.gov.au/fwo/IDQ60801/IDQ60801.94381.axf

JavaScript Object Notation format (JSON) in row-major order
http://www.bom.gov.au/fwo/IDQ60801/IDQ60801.94381.json